Time,TemperatureF,DewpointF,PressureIn,WindDirection,WindDirectionDegrees,WindSpeedMPH,WindSpeedGustMPH,Humidity,HourlyPrecipIn,Conditions,Clouds,dailyrainin,SoftwareType,DateUTC
2013-07-03 00:08:00,72.5,71.0,30.17,SW,214,3.0,4.0,95,0.00,,,0.00,weatherlink.com 1.10,2013-07-03 04:08:00,
2013-07-03 00:23:00,72.7,71.0,30.17,SW,228,0.0,7.0,95,0.00,,,0.00,weatherlink.com 1.10,2013-07-03 04:23:00,
2013-07-03 00:38:00,72.7,71.0,30.17,SW,236,1.0,4.0,94,0.00,,,0.00,weatherlink.com 1.10,2013-07-03 04:38:00,
2013-07-03 00:53:00,72.8,71.0,30.17,SW,223,1.0,6.0,94,0.00,,,0.00,weatherlink.com 1.10,2013-07-03 04:53:00,
2013-07-03 01:08:00,72.8,71.0,30.17,SW,228,1.0,5.0,94,0.00,,,0.00,weatherlink.com 1.10,2013-07-03 05:08:00,
2013-07-03 01:23:00,72.7,71.0,30.17,WSW,256,1.0,3.0,94,0.00,,,0.00,weatherlink.com 1.10,2013-07-03 05:23:00,
2013-07-03 01:53:00,72.2,71.0,30.16,WSW,249,1.0,2.0,96,0.00,,,0.00,weatherlink.com 1.10,2013-07-03 05:53:00,
2013-07-03 02:08:00,72.0,71.0,30.17,SW,230,0.0,1.0,96,0.00,,,0.00,weatherlink.com 1.10,2013-07-03 06:08:00,
2013-07-03 02:23:00,71.7,71.0,30.17,SW,229,0.0,1.0,96,0.00,,,0.00,weatherlink.com 1.10,2013-07-03 06:23:00,
2013-07-03 02:38:00,71.6,71.0,30.17,SW,218,1.0,2.0,97,0.00,,,0.00,weatherlink.com 1.10,2013-07-03 06:38:00,
2013-07-03 02:53:00,71.4,71.0,30.17,SW,219,1.0,3.0,97,0.00,,,0.00,weatherlink.com 1.10,2013-07-03 06:53:00,
2013-07-03 03:08:00,71.3,70.0,30.17,WSW,238,0.0,1.0,97,0.00,,,0.00,weatherlink.com 1.10,2013-07-03 07:08:00,
2013-07-03 03:23:00,71.1,70.0,30.17,WSW,240,0.0,2.0,97,0.00,,,0.00,weatherlink.com 1.10,2013-07-03 07:23:00,
2013-07-03 03:39:00,70.9,70.0,30.17,WSW,240,0.0,0.0,97,0.00,,,0.00,weatherlink.com 1.10,2013-07-03 07:39:00,
2013-07-03 03:54:00,70.7,70.0,30.17,SW,215,0.0,1.0,97,0.00,,,0.00,weatherlink.com 1.10,2013-07-03 07:54:00,
2013-07-03 04:39:00,70.2,69.0,30.17,WSW,238,0.0,0.0,97,0.00,,,0.00,weatherlink.com 1.10,2013-07-03 08:39:00,
2013-07-03 04:54:00,70.1,69.0,30.18,WSW,239,0.0,1.0,97,0.00,,,0.00,weatherlink.com 1.10,2013-07-03 08:54:00,
2013-07-03 05:09:00,70.2,69.0,30.18,WSW,238,0.0,1.0,97,0.00,,,0.00,weatherlink.com 1.10,2013-07-03 09:09:00,
2013-07-03 05:24:00,70.1,70.0,30.18,SW,220,0.0,2.0,98,0.00,,,0.00,weatherlink.com 1.10,2013-07-03 09:24:00,
2013-07-03 05:39:00,70.1,70.0,30.18,SW,236,1.0,2.0,98,0.00,,,0.00,weatherlink.com 1.10,2013-07-03 09:39:00,
2013-07-03 05:54:00,70.3,70.0,30.18,SSW,194,1.0,6.0,98,0.00,,,0.00,weatherlink.com 1.10,2013-07-03 09:54:00,
2013-07-03 06:09:00,70.7,70.0,30.19,WSW,255,2.0,7.0,97,0.00,,,0.00,weatherlink.com 1.10,2013-07-03 10:09:00,
2013-07-03 06:24:00,71.6,70.0,30.18,WSW,252,5.0,7.0,96,0.00,,,0.00,weatherlink.com 1.10,2013-07-03 10:24:00,
2013-07-03 06:39:00,71.8,70.0,30.19,WSW,255,1.0,7.0,95,0.00,,,0.00,weatherlink.com 1.10,2013-07-03 10:39:00,
2013-07-03 06:54:00,73.0,71.0,30.19,WSW,257,2.0,8.0,93,0.00,,,0.00,weatherlink.com 1.10,2013-07-03 10:54:00,
2013-07-03 07:09:00,73.7,71.0,30.20,West,259,7.0,7.0,91,0.00,,,0.00,weatherlink.com 1.10,2013-07-03 11:09:00,
2013-07-03 07:39:00,74.1,71.0,30.20,SSW,208,5.0,8.0,91,0.00,,,0.00,weatherlink.com 1.10,2013-07-03 11:39:00,
2013-07-03 07:54:00,74.4,71.0,30.20,WNW,283,1.0,8.0,90,0.00,,,0.00,weatherlink.com 1.10,2013-07-03 11:54:00,
2013-07-03 08:09:00,74.5,71.0,30.20,West,269,6.0,8.0,89,0.00,,,0.00,weatherlink.com 1.10,2013-07-03 12:09:00,
2013-07-03 08:24:00,74.9,72.0,30.21,WSW,257,0.0,9.0,89,0.00,,,0.00,weatherlink.com 1.10,2013-07-03 12:24:00,
2013-07-03 08:39:00,75.4,72.0,30.20,WNW,288,5.0,10.0,88,0.00,,,0.00,weatherlink.com 1.10,2013-07-03 12:39:00,
2013-07-03 08:54:00,75.9,72.0,30.21,SW,222,9.0,9.0,87,0.00,,,0.00,weatherlink.com 1.10,2013-07-03 12:54:00,
2013-07-03 09:39:00,77.4,73.0,30.21,SW,224,5.0,5.0,85,0.00,,,0.00,weatherlink.com 1.10,2013-07-03 13:39:00,
2013-07-03 09:54:00,77.3,73.0,30.21,WSW,257,3.0,9.0,85,0.00,,,0.00,weatherlink.com 1.10,2013-07-03 13:54:00,
2013-07-03 10:09:00,77.3,73.0,30.21,WNW,293,3.0,7.0,85,0.00,,,0.00,weatherlink.com 1.10,2013-07-03 14:09:00,
2013-07-03 10:24:00,77.4,73.0,30.21,SW,230,7.0,7.0,85,0.00,,,0.00,weatherlink.com 1.10,2013-07-03 14:24:00,
2013-07-03 10:39:00,77.8,73.0,30.21,West,260,5.0,9.0,85,0.00,,,0.00,weatherlink.com 1.10,2013-07-03 14:39:00,
2013-07-03 10:54:00,78.1,73.0,30.21,West,280,4.0,7.0,84,0.00,,,0.00,weatherlink.com 1.10,2013-07-03 14:54:00,
2013-07-03 11:09:00,78.7,73.0,30.21,WSW,245,1.0,7.0,83,0.00,,,0.00,weatherlink.com 1.10,2013-07-03 15:09:00,
2013-07-03 11:25:00,79.1,73.0,30.21,West,260,4.0,8.0,82,0.00,,,0.00,weatherlink.com 1.10,2013-07-03 15:25:00,
2013-07-03 11:40:00,79.7,74.0,30.20,SSW,198,5.0,9.0,82,0.00,,,0.00,weatherlink.com 1.10,2013-07-03 15:40:00,
2013-07-03 11:55:00,82.4,74.0,30.20,WSW,246,5.0,10.0,76,0.00,,,0.00,weatherlink.com 1.10,2013-07-03 15:55:00,
2013-07-03 12:10:00,83.2,75.0,30.20,SW,215,2.0,11.0,76,0.00,,,0.00,weatherlink.com 1.10,2013-07-03 16:10:00,
2013-07-03 12:25:00,84.2,74.0,30.20,West,277,11.0,11.0,72,0.00,,,0.00,weatherlink.com 1.10,2013-07-03 16:25:00,
2013-07-03 12:40:00,84.7,74.0,30.19,WSW,238,4.0,10.0,70,0.00,,,0.00,weatherlink.com 1.10,2013-07-03 16:40:00,
2013-07-03 12:55:00,85.3,75.0,30.19,West,273,4.0,7.0,72,0.00,,,0.00,weatherlink.com 1.10,2013-07-03 16:55:00,
2013-07-03 13:10:00,85.3,74.0,30.18,West,270,3.0,12.0,69,0.00,,,0.00,weatherlink.com 1.10,2013-07-03 17:10:00,
2013-07-03 13:25:00,86.3,75.0,30.18,WSW,241,5.0,10.0,69,0.00,,,0.00,weatherlink.com 1.10,2013-07-03 17:25:00,
2013-07-03 13:55:00,86.5,75.0,30.18,WSW,250,9.0,13.0,69,0.00,,,0.00,weatherlink.com 1.10,2013-07-03 17:55:00,
2013-07-03 14:10:00,86.9,76.0,30.17,SW,231,2.0,13.0,71,0.00,,,0.00,weatherlink.com 1.10,2013-07-03 18:10:00,
2013-07-03 14:25:00,86.9,76.0,30.17,WSW,238,10.0,10.0,71,0.00,,,0.00,weatherlink.com 1.10,2013-07-03 18:25:00,
2013-07-03 14:40:00,85.2,76.0,30.17,SSW,208,11.0,12.0,73,0.00,,,0.00,weatherlink.com 1.10,2013-07-03 18:40:00,
2013-07-03 14:55:00,85.9,76.0,30.17,SW,236,6.0,13.0,72,0.00,,,0.00,weatherlink.com 1.10,2013-07-03 18:55:00,
2013-07-03 15:10:00,85.2,76.0,30.17,SW,235,8.0,14.0,73,0.00,,,0.00,weatherlink.com 1.10,2013-07-03 19:10:00,
2013-07-03 15:40:00,85.6,75.0,30.16,WSW,252,6.0,15.0,71,0.00,,,0.00,weatherlink.com 1.10,2013-07-03 19:40:00,
2013-07-03 15:55:00,86.1,75.0,30.16,WSW,255,10.0,14.0,70,0.00,,,0.00,weatherlink.com 1.10,2013-07-03 19:55:00,
2013-07-03 16:10:00,86.2,76.0,30.15,WSW,250,10.0,10.0,71,0.00,,,0.00,weatherlink.com 1.10,2013-07-03 20:10:00,
2013-07-03 16:40:00,85.5,75.0,30.15,SW,228,6.0,11.0,71,0.00,,,0.00,weatherlink.com 1.10,2013-07-03 20:40:00,
2013-07-03 16:55:00,85.2,75.0,30.14,South,187,3.0,13.0,71,0.00,,,0.00,weatherlink.com 1.10,2013-07-03 20:55:00,
2013-07-03 17:10:00,84.5,74.0,30.14,WSW,253,9.0,13.0,71,0.00,,,0.00,weatherlink.com 1.10,2013-07-03 21:10:00,
2013-07-03 17:40:00,82.7,74.0,30.15,SW,235,8.0,12.0,75,0.00,,,0.00,weatherlink.com 1.10,2013-07-03 21:40:00,
2013-07-03 18:10:00,81.2,74.0,30.15,WSW,246,6.0,10.0,78,0.00,,,0.00,weatherlink.com 1.10,2013-07-03 22:10:00,
2013-07-03 18:25:00,81.0,74.0,30.15,SSW,207,8.0,12.0,78,0.00,,,0.00,weatherlink.com 1.10,2013-07-03 22:25:00,
2013-07-03 18:55:00,80.6,74.0,30.16,SW,231,4.0,10.0,81,0.00,,,0.00,weatherlink.com 1.10,2013-07-03 22:55:00,
2013-07-03 19:10:00,79.9,74.0,30.16,West,273,7.0,11.0,82,0.00,,,0.00,weatherlink.com 1.10,2013-07-03 23:10:00,
2013-07-03 19:25:00,79.1,74.0,30.16,WSW,257,5.0,9.0,84,0.00,,,0.00,weatherlink.com 1.10,2013-07-03 23:25:00,
2013-07-03 19:40:00,78.6,74.0,30.16,WSW,248,2.0,9.0,85,0.00,,,0.00,weatherlink.com 1.10,2013-07-03 23:40:00,
2013-07-03 20:10:00,77.0,73.0,30.17,SW,230,1.0,9.0,88,0.00,,,0.00,weatherlink.com 1.10,2013-07-04 00:10:00,
2013-07-03 20:25:00,76.2,73.0,30.17,WNW,290,2.0,6.0,89,0.00,,,0.00,weatherlink.com 1.10,2013-07-04 00:25:00,
2013-07-03 20:40:00,75.7,73.0,30.18,SW,224,0.0,6.0,90,0.00,,,0.00,weatherlink.com 1.10,2013-07-04 00:40:00,
2013-07-03 20:55:00,75.4,73.0,30.19,SSW,212,3.0,8.0,91,0.00,,,0.00,weatherlink.com 1.10,2013-07-04 00:55:00,
2013-07-03 21:10:00,75.3,73.0,30.19,SW,231,3.0,8.0,91,0.00,,,0.00,weatherlink.com 1.10,2013-07-04 01:10:00,
2013-07-03 21:25:00,75.3,73.0,30.19,SW,225,2.0,7.0,91,0.00,,,0.00,weatherlink.com 1.10,2013-07-04 01:25:00,
2013-07-03 21:40:00,75.3,73.0,30.20,SW,235,3.0,8.0,91,0.00,,,0.00,weatherlink.com 1.10,2013-07-04 01:40:00,
2013-07-03 21:55:00,75.2,73.0,30.19,SW,228,4.0,7.0,92,0.00,,,0.00,weatherlink.com 1.10,2013-07-04 01:55:00,
2013-07-03 22:25:00,74.7,73.0,30.19,WSW,252,4.0,6.0,93,0.00,,,0.00,weatherlink.com 1.10,2013-07-04 02:25:00,
2013-07-03 22:40:00,74.7,73.0,30.19,SSE,149,2.0,8.0,93,0.00,,,0.00,weatherlink.com 1.10,2013-07-04 02:40:00,
2013-07-03 22:55:00,74.7,73.0,30.19,WSW,238,6.0,9.0,93,0.00,,,0.00,weatherlink.com 1.10,2013-07-04 02:55:00,
2013-07-03 23:41:00,74.3,72.0,30.19,West,267,6.0,8.0,93,0.00,,,0.00,weatherlink.com 1.10,2013-07-04 03:41:00,
2013-07-03 23:56:00,74.2,72.0,30.19,WSW,250,1.0,7.0,94,0.00,,,0.00,weatherlink.com 1.10,2013-07-04 03:56:00,